sensor_id;sensor_type;location;lat;lon;timestamp;pressure;altitude;pressure_sealevel;temperature;humidity
28428;BME280;15662;49.128;8.520;2023-12-04T00:01:50;100648.56;;;4.56;46.17
28428;BME280;15662;49.128;8.520;2023-12-04T00:04:17;100638.06;;;4.54;46.54
28428;BME280;15662;49.128;8.520;2023-12-04T00:06:45;100640.72;;;4.54;46.13
28428;BME280;15662;49.128;8.520;2023-12-04T00:09:13;100643.31;;;4.53;46.43
28428;BME280;15662;49.128;8.520;2023-12-04T00:11:40;100645.06;;;4.51;46.74
28428;BME280;15662;49.128;8.520;2023-12-04T00:14:08;100652.09;;;4.53;46.44
28428;BME280;15662;49.128;8.520;2023-12-04T00:16:36;100650.31;;;4.52;46.54
28428;BME280;15662;49.128;8.520;2023-12-04T00:19:03;100647.69;;;4.51;46.10
28428;BME280;15662;49.128;8.520;2023-12-04T00:21:31;100637.19;;;4.49;46.30
28428;BME280;15662;49.128;8.520;2023-12-04T00:23:59;100622.31;;;4.44;46.11
28428;BME280;15662;49.128;8.520;2023-12-04T00:26:26;100624.03;;;4.46;45.96
28428;BME280;15662;49.128;8.520;2023-12-04T00:28:54;100621.41;;;4.46;46.58
28428;BME280;15662;49.128;8.520;2023-12-04T00:31:22;100605.66;;;4.43;46.44
28428;BME280;15662;49.128;8.520;2023-12-04T00:33:49;100609.16;;;4.39;46.38
28428;BME280;15662;49.128;8.520;2023-12-04T00:36:17;100617.03;;;4.40;46.54
28428;BME280;15662;49.128;8.520;2023-12-04T00:38:47;100618.78;;;4.38;46.51
28428;BME280;15662;49.128;8.520;2023-12-04T00:41:15;100609.16;;;4.34;46.11
28428;BME280;15662;49.128;8.520;2023-12-04T00:43:42;100609.13;;;4.37;46.10
28428;BME280;15662;49.128;8.520;2023-12-04T00:46:10;100596.88;;;4.30;46.09
28428;BME280;15662;49.128;8.520;2023-12-04T00:48:37;100596.03;;;4.36;45.99
28428;BME280;15662;49.128;8.520;2023-12-04T00:51:05;100594.25;;;4.36;46.52
28428;BME280;15662;49.128;8.520;2023-12-04T00:53:33;100587.28;;;4.35;46.28
28428;BME280;15662;49.128;8.520;2023-12-04T00:56:01;100587.28;;;4.35;46.76
28428;BME280;15662;49.128;8.520;2023-12-04T00:58:28;100589.00;;;4.36;46.44
28428;BME280;15662;49.128;8.520;2023-12-04T01:00:56;100568.03;;;4.35;46.57
28428;BME280;15662;49.128;8.520;2023-12-04T01:03:24;100571.50;;;4.32;46.33
28428;BME280;15662;49.128;8.520;2023-12-04T01:05:54;100573.28;;;4.35;46.44
28428;BME280;15662;49.128;8.520;2023-12-04T01:08:21;100564.50;;;4.31;46.04
28428;BME280;15662;49.128;8.520;2023-12-04T01:10:50;100566.28;;;4.34;46.70
28428;BME280;15662;49.128;8.520;2023-12-04T01:13:18;100563.63;;;4.31;46.44
28428;BME280;15662;49.128;8.520;2023-12-04T01:15:46;100571.53;;;4.34;46.44
28428;BME280;15662;49.128;8.520;2023-12-04T01:18:15;100574.16;;;4.35;46.22
28428;BME280;15662;49.128;8.520;2023-12-04T01:20:43;100573.28;;;4.39;46.53
28428;BME280;15662;49.128;8.520;2023-12-04T01:23:11;100569.78;;;4.40;46.31
28428;BME280;15662;49.128;8.520;2023-12-04T01:25:38;100569.81;;;4.44;46.20
28428;BME280;15662;49.128;8.520;2023-12-04T01:28:06;100563.69;;;4.45;46.78
28428;BME280;15662;49.128;8.520;2023-12-04T01:30:33;100561.94;;;4.45;46.74
28428;BME280;15662;49.128;8.520;2023-12-04T01:33:02;100562.78;;;4.47;46.72
28428;BME280;15662;49.128;8.520;2023-12-04T01:35:29;100564.56;;;4.50;46.26
28428;BME280;15662;49.128;8.520;2023-12-04T01:37:57;100547.91;;;4.48;46.60
28428;BME280;15662;49.128;8.520;2023-12-04T01:40:26;100554.94;;;4.50;46.56
28428;BME280;15662;49.128;8.520;2023-12-04T01:42:53;100550.56;;;4.51;46.22
28428;BME280;15662;49.128;8.520;2023-12-04T01:45:21;100539.19;;;4.50;46.34
28428;BME280;15662;49.128;8.520;2023-12-04T01:47:49;100534.81;;;4.51;46.83
28428;BME280;15662;49.128;8.520;2023-12-04T01:50:17;100534.78;;;4.48;46.35
28428;BME280;15662;49.128;8.520;2023-12-04T01:52:44;100539.19;;;4.49;46.76
28428;BME280;15662;49.128;8.520;2023-12-04T01:55:13;100542.69;;;4.46;46.27
28428;BME280;15662;49.128;8.520;2023-12-04T01:57:42;100533.91;;;4.41;46.45
28428;BME280;15662;49.128;8.520;2023-12-04T02:00:10;100524.31;;;4.38;46.56
28428;BME280;15662;49.128;8.520;2023-12-04T02:02:39;100527.78;;;4.40;46.84
28428;BME280;15662;49.128;8.520;2023-12-04T02:05:09;100517.28;;;4.36;46.69
28428;BME280;15662;49.128;8.520;2023-12-04T02:07:38;100526.94;;;4.38;46.28
28428;BME280;15662;49.128;8.520;2023-12-04T02:10:07;100522.53;;;4.36;46.39
28428;BME280;15662;49.128;8.520;2023-12-04T02:12:36;100519.91;;;4.36;46.25
28428;BME280;15662;49.128;8.520;2023-12-04T02:15:05;100506.78;;;4.31;46.04
28428;BME280;15662;49.128;8.520;2023-12-04T02:17:33;100495.41;;;4.25;46.57
28428;BME280;15662;49.128;8.520;2023-12-04T02:20:01;100498.91;;;4.31;46.54
28428;BME280;15662;49.128;8.520;2023-12-04T02:22:31;100504.16;;;4.30;46.27
28428;BME280;15662;49.128;8.520;2023-12-04T02:24:58;100499.78;;;4.29;46.61
28428;BME280;15662;49.128;8.520;2023-12-04T02:27:29;100495.41;;;4.25;46.18
28428;BME280;15662;49.128;8.520;2023-12-04T02:30:02;100493.66;;;4.27;46.27
28428;BME280;15662;49.128;8.520;2023-12-04T02:32:35;100484.03;;;4.26;46.73
28428;BME280;15662;49.128;8.520;2023-12-04T02:35:04;100479.66;;;4.23;46.20
28428;BME280;15662;49.128;8.520;2023-12-04T02:37:32;100484.03;;;4.27;46.56
28428;BME280;15662;49.128;8.520;2023-12-04T02:40:16;100481.41;;;4.24;46.19
28428;BME280;15662;49.128;8.520;2023-12-04T02:42:44;100467.41;;;4.22;46.64
28428;BME280;15662;49.128;8.520;2023-12-04T02:45:12;100469.16;;;4.28;46.56
28428;BME280;15662;49.128;8.520;2023-12-04T02:47:39;100453.41;;;4.26;46.49
28428;BME280;15662;49.128;8.520;2023-12-04T02:50:07;100442.03;;;4.21;46.78
28428;BME280;15662;49.128;8.520;2023-12-04T02:52:35;100438.53;;;4.22;46.35
28428;BME280;15662;49.128;8.520;2023-12-04T02:55:02;100437.69;;;4.25;46.45
28428;BME280;15662;49.128;8.520;2023-12-04T02:57:30;100437.66;;;4.23;46.22
28428;BME280;15662;49.128;8.520;2023-12-04T02:59:58;100442.06;;;4.26;46.31
28428;BME280;15662;49.128;8.520;2023-12-04T03:02:25;100439.44;;;4.26;46.67
28428;BME280;15662;49.128;8.520;2023-12-04T03:04:53;100430.66;;;4.28;46.56
28428;BME280;15662;49.128;8.520;2023-12-04T03:07:21;100430.66;;;4.28;46.32
28428;BME280;15662;49.128;8.520;2023-12-04T03:09:51;100423.69;;;4.29;46.39
28428;BME280;15662;49.128;8.520;2023-12-04T03:12:19;100402.69;;;4.23;46.75
28428;BME280;15662;49.128;8.520;2023-12-04T03:14:46;100408.81;;;4.26;46.25
28428;BME280;15662;49.128;8.520;2023-12-04T03:17:14;100407.97;;;4.29;46.85
28428;BME280;15662;49.128;8.520;2023-12-04T03:19:42;100395.69;;;4.28;46.39
28428;BME280;15662;49.128;8.520;2023-12-04T03:22:09;100389.59;;;4.30;46.39
28428;BME280;15662;49.128;8.520;2023-12-04T03:24:37;100385.22;;;4.29;46.33
28428;BME280;15662;49.128;8.520;2023-12-04T03:27:04;100385.19;;;4.28;46.51
28428;BME280;15662;49.128;8.520;2023-12-04T03:29:32;100389.56;;;4.33;46.86
28428;BME280;15662;49.128;8.520;2023-12-04T03:31:59;100377.34;;;4.35;46.43
28428;BME280;15662;49.128;8.520;2023-12-04T03:34:27;100373.81;;;4.38;46.98
28428;BME280;15662;49.128;8.520;2023-12-04T03:36:55;100374.72;;;4.40;46.80
28428;BME280;15662;49.128;8.520;2023-12-04T03:39:22;100365.94;;;4.38;46.76
28428;BME280;15662;49.128;8.520;2023-12-04T03:41:50;100366.81;;;4.42;46.63
28428;BME280;15662;49.128;8.520;2023-12-04T03:44:17;100366.84;;;4.45;46.41
28428;BME280;15662;49.128;8.520;2023-12-04T03:46:45;100370.31;;;4.47;46.53
28428;BME280;15662;49.128;8.520;2023-12-04T03:49:12;100355.47;;;4.44;46.42
28428;BME280;15662;49.128;8.520;2023-12-04T03:51:40;100358.97;;;4.45;46.65
28428;BME280;15662;49.128;8.520;2023-12-04T03:54:08;100368.59;;;4.53;47.07
28428;BME280;15662;49.128;8.520;2023-12-04T03:56:35;100369.47;;;4.54;46.78
28428;BME280;15662;49.128;8.520;2023-12-04T03:59:03;100382.56;;;4.57;46.66
28428;BME280;15662;49.128;8.520;2023-12-04T04:01:30;100374.69;;;4.55;46.56
28428;BME280;15662;49.128;8.520;2023-12-04T04:03:58;100382.56;;;4.57;47.17
28428;BME280;15662;49.128;8.520;2023-12-04T04:06:25;100381.69;;;4.61;47.03
28428;BME280;15662;49.128;8.520;2023-12-04T04:08:53;100386.91;;;4.62;47.11
28428;BME280;15662;49.128;8.520;2023-12-04T04:11:20;100378.19;;;4.63;47.12
28428;BME280;15662;49.128;8.520;2023-12-04T04:13:48;100377.28;;;4.63;47.19
28428;BME280;15662;49.128;8.520;2023-12-04T04:16:15;100391.31;;;4.60;47.03
28428;BME280;15662;49.128;8.520;2023-12-04T04:18:43;100386.91;;;4.58;47.21
28428;BME280;15662;49.128;8.520;2023-12-04T04:21:11;100377.31;;;4.57;46.88
28428;BME280;15662;49.128;8.520;2023-12-04T04:23:38;100386.06;;;4.56;47.01
28428;BME280;15662;49.128;8.520;2023-12-04T04:26:06;100383.44;;;4.54;47.15
28428;BME280;15662;49.128;8.520;2023-12-04T04:28:34;100375.56;;;4.57;47.09
28428;BME280;15662;49.128;8.520;2023-12-04T04:31:01;100391.31;;;4.59;46.67
28428;BME280;15662;49.128;8.520;2023-12-04T04:33:29;100379.06;;;4.55;47.19
28428;BME280;15662;49.128;8.520;2023-12-04T04:35:57;100373.81;;;4.50;46.54
28428;BME280;15662;49.128;8.520;2023-12-04T04:38:24;100372.06;;;4.52;46.79
28428;BME280;15662;49.128;8.520;2023-12-04T04:40:52;100379.06;;;4.52;47.20
28428;BME280;15662;49.128;8.520;2023-12-04T04:43:20;100371.19;;;4.50;46.74
28428;BME280;15662;49.128;8.520;2023-12-04T04:45:47;100371.19;;;4.50;46.57
28428;BME280;15662;49.128;8.520;2023-12-04T04:48:15;100369.47;;;4.49;47.03
28428;BME280;15662;49.128;8.520;2023-12-04T04:50:43;100365.06;;;4.48;47.17
28428;BME280;15662;49.128;8.520;2023-12-04T04:53:10;100360.72;;;4.49;47.15
28428;BME280;15662;49.128;8.520;2023-12-04T04:55:38;100366.81;;;4.51;46.85
28428;BME280;15662;49.128;8.520;2023-12-04T04:58:18;100365.94;;;4.52;47.42
28428;BME280;15662;49.128;8.520;2023-12-04T05:00:46;100365.94;;;4.52;47.10
28428;BME280;15662;49.128;8.520;2023-12-04T05:03:14;100358.06;;;4.52;47.36
28428;BME280;15662;49.128;8.520;2023-12-04T05:05:42;100364.19;;;4.57;47.13
28428;BME280;15662;49.128;8.520;2023-12-04T05:08:10;100352.81;;;4.56;47.13
28428;BME280;15662;49.128;8.520;2023-12-04T05:10:38;100358.06;;;4.55;46.86
28428;BME280;15662;49.128;8.520;2023-12-04T05:13:07;100357.19;;;4.57;46.91
28428;BME280;15662;49.128;8.520;2023-12-04T05:15:35;100363.34;;;4.53;46.82
28428;BME280;15662;49.128;8.520;2023-12-04T05:18:02;100371.19;;;4.50;47.40
28428;BME280;15662;49.128;8.520;2023-12-04T05:20:30;100368.56;;;4.47;47.00
28428;BME280;15662;49.128;8.520;2023-12-04T05:22:58;100372.94;;;4.48;47.11
28428;BME280;15662;49.128;8.520;2023-12-04T05:25:26;100364.22;;;4.45;46.87
28428;BME280;15662;49.128;8.520;2023-12-04T05:28:00;100367.72;;;4.44;47.01
28428;BME280;15662;49.128;8.520;2023-12-04T05:30:28;100366.84;;;4.38;47.55
28428;BME280;15662;49.128;8.520;2023-12-04T05:32:55;100372.06;;;4.42;47.29
28428;BME280;15662;49.128;8.520;2023-12-04T05:35:23;100372.09;;;4.40;47.41
28428;BME280;15662;49.128;8.520;2023-12-04T05:37:51;100358.97;;;4.34;47.17
28428;BME280;15662;49.128;8.520;2023-12-04T05:40:18;100367.72;;;4.39;47.14
28428;BME280;15662;49.128;8.520;2023-12-04T05:42:46;100363.31;;;4.38;47.12
28428;BME280;15662;49.128;8.520;2023-12-04T05:45:14;100363.34;;;4.36;46.85
28428;BME280;15662;49.128;8.520;2023-12-04T05:47:41;100353.72;;;4.35;47.00
28428;BME280;15662;49.128;8.520;2023-12-04T05:50:09;100348.47;;;4.31;47.25
28428;BME280;15662;49.128;8.520;2023-12-04T05:52:37;100347.56;;;4.33;47.50
28428;BME280;15662;49.128;8.520;2023-12-04T05:55:04;100358.97;;;4.35;47.48
28428;BME280;15662;49.128;8.520;2023-12-04T05:57:32;100355.44;;;4.33;47.35
28428;BME280;15662;49.128;8.520;2023-12-04T06:00:00;100355.47;;;4.29;47.31
28428;BME280;15662;49.128;8.520;2023-12-04T06:02:30;100350.22;;;4.30;46.89
28428;BME280;15662;49.128;8.520;2023-12-04T06:04:58;100339.72;;;4.23;47.04
28428;BME280;15662;49.128;8.520;2023-12-04T06:07:25;100329.22;;;4.17;47.52
28428;BME280;15662;49.128;8.520;2023-12-04T06:09:53;100325.75;;;4.19;47.39
28428;BME280;15662;49.128;8.520;2023-12-04T06:12:21;100310.00;;;4.08;47.33
28428;BME280;15662;49.128;8.520;2023-12-04T06:14:48;100322.25;;;4.16;47.16
28428;BME280;15662;49.128;8.520;2023-12-04T06:17:16;100317.88;;;4.19;47.74
28428;BME280;15662;49.128;8.520;2023-12-04T06:19:46;100314.38;;;4.16;47.71
28428;BME280;15662;49.128;8.520;2023-12-04T06:22:14;100304.75;;;4.07;47.58
28428;BME280;15662;49.128;8.520;2023-12-04T06:24:42;100318.75;;;4.20;47.44
28428;BME280;15662;49.128;8.520;2023-12-04T06:27:13;100308.25;;;4.24;47.67
28428;BME280;15662;49.128;8.520;2023-12-04T06:29:43;100295.13;;;4.24;47.10
28428;BME280;15662;49.128;8.520;2023-12-04T06:32:11;100294.22;;;4.28;47.29
28428;BME280;15662;49.128;8.520;2023-12-04T06:34:39;100280.25;;;4.28;47.17
28428;BME280;15662;49.128;8.520;2023-12-04T06:37:12;100288.97;;;4.36;47.07
28428;BME280;15662;49.128;8.520;2023-12-04T06:39:40;100288.09;;;4.43;47.47
28428;BME280;15662;49.128;8.520;2023-12-04T06:42:08;100294.22;;;4.47;47.13
28428;BME280;15662;49.128;8.520;2023-12-04T06:44:37;100286.31;;;4.53;47.47
28428;BME280;15662;49.128;8.520;2023-12-04T06:47:05;100276.69;;;4.52;47.08
28428;BME280;15662;49.128;8.520;2023-12-04T06:49:35;100267.09;;;4.51;47.10
28428;BME280;15662;49.128;8.520;2023-12-04T06:52:03;100237.34;;;4.46;47.58
28428;BME280;15662;49.128;8.520;2023-12-04T06:54:30;100240.84;;;4.54;47.12
28428;BME280;15662;49.128;8.520;2023-12-04T06:56:58;100228.59;;;4.50;47.21
28428;BME280;15662;49.128;8.520;2023-12-04T06:59:26;100234.66;;;4.58;47.37
28428;BME280;15662;49.128;8.520;2023-12-04T07:01:53;100231.19;;;4.59;47.04
28428;BME280;15662;49.128;8.520;2023-12-04T07:04:21;100215.44;;;4.57;47.43
28428;BME280;15662;49.128;8.520;2023-12-04T07:06:49;100212.81;;;4.59;47.66
28428;BME280;15662;49.128;8.520;2023-12-04T07:09:17;100217.19;;;4.57;47.50
28428;BME280;15662;49.128;8.520;2023-12-04T07:11:44;100232.94;;;4.60;47.14
28428;BME280;15662;49.128;8.520;2023-12-04T07:14:12;100221.53;;;4.58;47.61
28428;BME280;15662;49.128;8.520;2023-12-04T07:16:43;100213.69;;;4.55;47.52
28428;BME280;15662;49.128;8.520;2023-12-04T07:19:10;100201.41;;;4.61;47.55
28428;BME280;15662;49.128;8.520;2023-12-04T07:21:39;100199.66;;;4.65;48.05
28428;BME280;15662;49.128;8.520;2023-12-04T07:24:07;100217.13;;;4.74;47.86
28428;BME280;15662;49.128;8.520;2023-12-04T07:26:35;100224.09;;;4.76;47.34
28428;BME280;15662;49.128;8.520;2023-12-04T07:29:03;100216.22;;;4.79;47.94
28428;BME280;15662;49.128;8.520;2023-12-04T07:31:31;100221.47;;;4.84;47.72
28428;BME280;15662;49.128;8.520;2023-12-04T07:33:58;100224.06;;;4.88;47.68
28428;BME280;15662;49.128;8.520;2023-12-04T07:36:29;100217.03;;;4.90;47.52
28428;BME280;15662;49.128;8.520;2023-12-04T07:38:56;100203.03;;;4.87;47.68
28428;BME280;15662;49.128;8.520;2023-12-04T07:41:24;100218.75;;;4.96;48.08
28428;BME280;15662;49.128;8.520;2023-12-04T07:43:52;100230.97;;;5.02;47.86
28428;BME280;15662;49.128;8.520;2023-12-04T07:46:19;100237.97;;;5.06;47.83
28428;BME280;15662;49.128;8.520;2023-12-04T07:48:47;100238.81;;;5.11;47.38
28428;BME280;15662;49.128;8.520;2023-12-04T07:51:15;100221.28;;;5.14;47.88
28428;BME280;15662;49.128;8.520;2023-12-04T07:53:43;100230.03;;;5.16;47.80
28428;BME280;15662;49.128;8.520;2023-12-04T07:56:11;100230.88;;;5.22;48.04
28428;BME280;15662;49.128;8.520;2023-12-04T07:58:39;100212.47;;;5.23;47.57
28428;BME280;15662;49.128;8.520;2023-12-04T08:01:07;100214.22;;;5.27;47.84
28428;BME280;15662;49.128;8.520;2023-12-04T08:03:35;100196.69;;;5.28;47.56
28428;BME280;15662;49.128;8.520;2023-12-04T08:06:03;100195.75;;;5.33;47.81
28428;BME280;15662;49.128;8.520;2023-12-04T08:08:31;100186.97;;;5.36;47.91
28428;BME280;15662;49.128;8.520;2023-12-04T08:10:59;100176.47;;;5.34;47.64
28428;BME280;15662;49.128;8.520;2023-12-04T08:13:27;100164.22;;;5.33;47.99
28428;BME280;15662;49.128;8.520;2023-12-04T08:15:54;100186.13;;;5.34;47.47
28428;BME280;15662;49.128;8.520;2023-12-04T08:18:22;100184.34;;;5.36;47.62
28428;BME280;15662;49.128;8.520;2023-12-04T08:20:49;100175.59;;;5.37;47.74
28428;BME280;15662;49.128;8.520;2023-12-04T08:23:17;100174.69;;;5.42;47.77
28428;BME280;15662;49.128;8.520;2023-12-04T08:25:45;100178.13;;;5.46;47.79
28428;BME280;15662;49.128;8.520;2023-12-04T08:28:13;100171.09;;;5.50;48.15
28428;BME280;15662;49.128;8.520;2023-12-04T08:30:40;100171.13;;;5.48;48.10
28428;BME280;15662;49.128;8.520;2023-12-04T08:33:08;100175.38;;;5.61;48.13
28428;BME280;15662;49.128;8.520;2023-12-04T08:35:36;100161.31;;;5.67;47.94
28428;BME280;15662;49.128;8.520;2023-12-04T08:38:03;100146.44;;;5.64;48.00
28428;BME280;15662;49.128;8.520;2023-12-04T08:40:31;100141.16;;;5.67;48.29
28428;BME280;15662;49.128;8.520;2023-12-04T08:42:59;100146.34;;;5.74;47.94
28428;BME280;15662;49.128;8.520;2023-12-04T08:45:27;100160.34;;;5.76;47.97
28428;BME280;15662;49.128;8.520;2023-12-04T08:47:55;100163.81;;;5.82;47.92
28428;BME280;15662;49.128;8.520;2023-12-04T08:50:22;100169.88;;;5.86;48.17
28428;BME280;15662;49.128;8.520;2023-12-04T08:52:52;100161.09;;;5.88;48.27
28428;BME280;15662;49.128;8.520;2023-12-04T08:55:20;100170.72;;;5.97;48.27
28428;BME280;15662;49.128;8.520;2023-12-04T08:57:48;100166.25;;;6.02;48.25
28428;BME280;15662;49.128;8.520;2023-12-04T09:00:16;100167.09;;;6.06;48.20
28428;BME280;15662;49.128;8.520;2023-12-04T09:02:43;100158.31;;;6.07;48.27
28428;BME280;15662;49.128;8.520;2023-12-04T09:05:20;100161.81;;;6.07;48.40
28428;BME280;15662;49.128;8.520;2023-12-04T09:07:48;100143.47;;;6.03;47.98
28428;BME280;15662;49.128;8.520;2023-12-04T09:10:36;100142.47;;;6.10;48.27
28428;BME280;15662;49.128;8.520;2023-12-04T09:13:23;100144.19;;;6.15;48.33
28428;BME280;15662;49.128;8.520;2023-12-04T09:15:51;100147.66;;;6.19;48.27
28428;BME280;15662;49.128;8.520;2023-12-04T09:18:19;100150.25;;;6.20;48.11
28428;BME280;15662;49.128;8.520;2023-12-04T09:20:47;100159.88;;;6.26;48.18
28428;BME280;15662;49.128;8.520;2023-12-04T09:23:15;100159.81;;;6.31;48.37
28428;BME280;15662;49.128;8.520;2023-12-04T09:25:45;100166.75;;;6.35;48.37
28428;BME280;15662;49.128;8.520;2023-12-04T09:28:13;100165.88;;;6.37;48.22
28428;BME280;15662;49.128;8.520;2023-12-04T09:30:40;100177.25;;;6.41;48.31
28428;BME280;15662;49.128;8.520;2023-12-04T09:33:08;100181.59;;;6.43;48.27
28428;BME280;15662;49.128;8.520;2023-12-04T09:35:36;100186.78;;;6.50;48.18
28428;BME280;15662;49.128;8.520;2023-12-04T09:38:04;100192.88;;;6.53;48.21
28428;BME280;15662;49.128;8.520;2023-12-04T09:40:32;100189.38;;;6.53;48.14
28428;BME280;15662;49.128;8.520;2023-12-04T09:43:00;100182.38;;;6.50;48.20
28428;BME280;15662;49.128;8.520;2023-12-04T09:45:27;100190.16;;;6.59;48.26
28428;BME280;15662;49.128;8.520;2023-12-04T09:47:56;100191.91;;;6.62;48.13
28428;BME280;15662;49.128;8.520;2023-12-04T09:50:24;100169.97;;;6.61;48.30
28428;BME280;15662;49.128;8.520;2023-12-04T09:52:52;100169.84;;;6.69;48.21
28428;BME280;15662;49.128;8.520;2023-12-04T09:55:20;100166.34;;;6.70;48.14
28428;BME280;15662;49.128;8.520;2023-12-04T09:57:48;100153.19;;;6.70;48.17
28428;BME280;15662;49.128;8.520;2023-12-04T10:00:16;100154.97;;;6.66;48.13
28428;BME280;15662;49.128;8.520;2023-12-04T10:02:45;100139.97;;;6.71;48.16
28428;BME280;15662;49.128;8.520;2023-12-04T10:05:13;100143.53;;;6.67;48.31
28428;BME280;15662;49.128;8.520;2023-12-04T10:07:41;100142.72;;;6.65;48.16
28428;BME280;15662;49.128;8.520;2023-12-04T10:10:08;100145.28;;;6.68;48.31
28428;BME280;15662;49.128;8.520;2023-12-04T10:12:36;100154.94;;;6.68;48.22
28428;BME280;15662;49.128;8.520;2023-12-04T10:15:11;100143.47;;;6.72;48.24
28428;BME280;15662;49.128;8.520;2023-12-04T10:17:40;100159.22;;;6.77;48.14
28428;BME280;15662;49.128;8.520;2023-12-04T10:20:11;100160.94;;;6.81;48.38
28428;BME280;15662;49.128;8.520;2023-12-04T10:22:58;100155.59;;;6.84;48.19
28428;BME280;15662;49.128;8.520;2023-12-04T10:25:27;100152.06;;;6.86;48.31
28428;BME280;15662;49.128;8.520;2023-12-04T10:28:16;100146.69;;;6.94;48.65
28428;BME280;15662;49.128;8.520;2023-12-04T10:30:45;100131.69;;;6.97;48.21
28428;BME280;15662;49.128;8.520;2023-12-04T10:33:13;100124.69;;;6.96;48.00
28428;BME280;15662;49.128;8.520;2023-12-04T10:35:41;100110.72;;;6.91;48.20
28428;BME280;15662;49.128;8.520;2023-12-04T10:38:10;100106.22;;;6.98;48.05
28428;BME280;15662;49.128;8.520;2023-12-04T10:40:41;100091.31;;;6.97;48.44
28428;BME280;15662;49.128;8.520;2023-12-04T10:43:09;100089.59;;;6.93;48.23
28428;BME280;15662;49.128;8.520;2023-12-04T10:45:39;100079.13;;;6.88;48.46
28428;BME280;15662;49.128;8.520;2023-12-04T10:48:08;100064.25;;;6.86;47.95
28428;BME280;15662;49.128;8.520;2023-12-04T10:50:41;100062.50;;;6.86;48.07
28428;BME280;15662;49.128;8.520;2023-12-04T10:53:11;100055.50;;;6.84;48.30
28428;BME280;15662;49.128;8.520;2023-12-04T10:55:40;100056.44;;;6.80;48.33
28428;BME280;15662;49.128;8.520;2023-12-04T10:58:13;100062.53;;;6.83;48.13
28428;BME280;15662;49.128;8.520;2023-12-04T11:00:47;100056.44;;;6.80;48.05
28428;BME280;15662;49.128;8.520;2023-12-04T11:03:24;100043.25;;;6.80;48.11
28428;BME280;15662;49.128;8.520;2023-12-04T11:05:56;100032.84;;;6.72;47.88
28428;BME280;15662;49.128;8.520;2023-12-04T11:08:28;100043.41;;;6.72;48.10
28428;BME280;15662;49.128;8.520;2023-12-04T11:11:05;100048.69;;;6.70;48.19
28428;BME280;15662;49.128;8.520;2023-12-04T11:13:41;100047.88;;;6.67;48.03
28428;BME280;15662;49.128;8.520;2023-12-04T11:16:30;100032.97;;;6.66;48.24
28428;BME280;15662;49.128;8.520;2023-12-04T11:19:04;100031.19;;;6.65;48.19
28428;BME280;15662;49.128;8.520;2023-12-04T11:21:33;100032.91;;;6.70;48.48
28428;BME280;15662;49.128;8.520;2023-12-04T11:24:01;100017.97;;;6.69;48.29
28428;BME280;15662;49.128;8.520;2023-12-04T11:26:30;100012.75;;;6.65;47.89
28428;BME280;15662;49.128;8.520;2023-12-04T11:28:58;100009.19;;;6.69;47.91
28428;BME280;15662;49.128;8.520;2023-12-04T11:31:26;100000.41;;;6.68;48.16
28428;BME280;15662;49.128;8.520;2023-12-04T11:33:54;100002.09;;;6.74;48.16
28428;BME280;15662;49.128;8.520;2023-12-04T11:36:28;99989.72;;;6.79;48.49
28428;BME280;15662;49.128;8.520;2023-12-04T11:38:56;99985.31;;;6.81;48.16
28428;BME280;15662;49.128;8.520;2023-12-04T11:41:24;99983.56;;;6.79;48.32
28428;BME280;15662;49.128;8.520;2023-12-04T11:43:57;99959.88;;;6.80;48.24
28428;BME280;15662;49.128;8.520;2023-12-04T11:46:26;99956.38;;;6.78;48.23
28428;BME280;15662;49.128;8.520;2023-12-04T11:48:56;99942.34;;;6.78;48.49
28428;BME280;15662;49.128;8.520;2023-12-04T11:51:51;99930.84;;;6.82;48.26
28428;BME280;15662;49.128;8.520;2023-12-04T11:54:21;99921.19;;;6.82;48.43
28428;BME280;15662;49.128;8.520;2023-12-04T11:57:39;99920.34;;;6.80;48.22
28428;BME280;15662;49.128;8.520;2023-12-04T11:59:48;99920.41;;;6.77;48.54
28428;BME280;15662;49.128;8.520;2023-12-04T12:02:16;99917.72;;;6.80;48.90
28428;BME280;15662;49.128;8.520;2023-12-04T12:04:44;99926.41;;;6.85;48.39
28428;BME280;15662;49.128;8.520;2023-12-04T12:07:15;99918.50;;;6.85;48.91
28428;BME280;15662;49.128;8.520;2023-12-04T12:09:43;99899.19;;;6.85;48.60
28428;BME280;15662;49.128;8.520;2023-12-04T12:12:11;99901.72;;;6.89;48.71
28428;BME280;15662;49.128;8.520;2023-12-04T12:14:40;99906.81;;;6.98;49.04
28428;BME280;15662;49.128;8.520;2023-12-04T12:17:08;99899.75;;;7.02;48.42
28428;BME280;15662;49.128;8.520;2023-12-04T12:19:36;99899.56;;;7.11;48.60
28428;BME280;15662;49.128;8.520;2023-12-04T12:22:05;99896.06;;;7.11;48.62
28428;BME280;15662;49.128;8.520;2023-12-04T12:24:32;99879.34;;;7.12;48.68
28428;BME280;15662;49.128;8.520;2023-12-04T12:27:00;99870.53;;;7.14;48.49
28428;BME280;15662;49.128;8.520;2023-12-04T12:29:28;99855.59;;;7.15;48.60
28428;BME280;15662;49.128;8.520;2023-12-04T12:31:55;99855.59;;;7.13;48.52
28428;BME280;15662;49.128;8.520;2023-12-04T12:34:24;99840.78;;;7.08;48.91
28428;BME280;15662;49.128;8.520;2023-12-04T12:36:51;99860.84;;;7.15;49.10
28428;BME280;15662;49.128;8.520;2023-12-04T12:39:19;99855.59;;;7.15;49.02
28428;BME280;15662;49.128;8.520;2023-12-04T12:41:50;99834.50;;;7.13;49.14
28428;BME280;15662;49.128;8.520;2023-12-04T12:44:18;99840.47;;;7.24;49.38
28428;BME280;15662;49.128;8.520;2023-12-04T12:46:49;99825.50;;;7.25;49.04
28428;BME280;15662;49.128;8.520;2023-12-04T12:49:20;99824.31;;;7.38;48.83
28428;BME280;15662;49.128;8.520;2023-12-04T12:52:05;99823.41;;;7.41;49.09
28428;BME280;15662;49.128;8.520;2023-12-04T12:54:36;99817.19;;;7.43;49.25
28428;BME280;15662;49.128;8.520;2023-12-04T12:57:04;99812.66;;;7.48;48.71
28428;BME280;15662;49.128;8.520;2023-12-04T12:59:33;99806.47;;;7.51;49.05
28428;BME280;15662;49.128;8.520;2023-12-04T13:02:01;99806.47;;;7.51;48.77
28428;BME280;15662;49.128;8.520;2023-12-04T13:04:35;99792.38;;;7.52;48.86
28428;BME280;15662;49.128;8.520;2023-12-04T13:07:04;99788.06;;;7.49;49.11
28428;BME280;15662;49.128;8.520;2023-12-04T13:09:33;99789.78;;;7.50;48.85
28428;BME280;15662;49.128;8.520;2023-12-04T13:12:04;99793.34;;;7.49;48.92